Thunder radar more information blitzortung!


Radar de pluja more information rain snow radar


Visita la nostra xarxa de llocs de meteo:

Template documentation
and downloads

And another site



No particular awareness of the weather is required.    There are no Weather-warnings

Pagina Historial Weather Underground text

Diari Resum Abril 26, 2016 Unitats:  Mètric    Imperial   Tant
« Previous Dia
SegĂźent Dia »
Diari Setmana Mensual Anual Personalitzada
  Maxima: Minima: Media:
Temperatura: 21.8 °C 6.3 °C 15.7 °C
Punt de rosada: 8.6 °C 2.5 °C 6.4 °C
Humitat: 78 % 36 % 56 %
Wind Speed: 21.7 km/h 0.0 km/h 7.9 km/h
RĂ fegues de vent: 21.7 km/h - -
Vent:- - SE
Pression baro: 1015.8 hPa 1010.7 hPa -
Precipitacions: 0.0 mm    
Historical Graphs
 
 
Dades de taula per Abril 26, 2016
Temps Temperatura Punt de rosada Pression baro Vent Wind Speed RĂ fegues de vent Humitat Rainfall Rate (Hourly)
00:00 7.2 °C 2.9 °C 1013.8 hPa Calm   1.6 km/h 74 % 0.0 mm
00:02 10.7 °C 4.4 °C 1015.8 hPa WSW 5.6 km/h 5.6 km/h 65 % 0.0 mm
00:10 7.1 °C 2.8 °C 1013.8 hPa SSW 1.6 km/h 1.6 km/h 74 % 0.0 mm
00:20 7.1 °C 2.8 °C 1013.8 hPa SSW 1.6 km/h 1.6 km/h 74 % 0.0 mm
00:30 7.1 °C 2.9 °C 1013.8 hPa Calm     75 % 0.0 mm
00:40 7.1 °C 3.2 °C 1013.8 hPa Calm     76 % 0.0 mm
00:50 7.0 °C 2.7 °C 1013.8 hPa SE 1.6 km/h 3.2 km/h 74 % 0.0 mm
01:00 6.6 °C 2.5 °C 1013.8 hPa Calm   3.2 km/h 75 % 0.0 mm
01:10 6.6 °C 2.5 °C 1013.8 hPa ENE 1.6 km/h 1.6 km/h 75 % 0.0 mm
01:20 6.5 °C 2.6 °C 1013.8 hPa Calm     76 % 0.0 mm
01:30 6.5 °C 2.6 °C 1013.8 hPa Calm     76 % 0.0 mm
01:40 6.5 °C 2.8 °C 1013.8 hPa Calm     77 % 0.0 mm
01:50 6.4 °C 2.7 °C 1013.8 hPa Calm     77 % 0.0 mm
02:00 6.3 °C 2.6 °C 1013.8 hPa Calm     77 % 0.0 mm
02:10 6.5 °C 2.9 °C 1013.8 hPa ENE 1.6 km/h 1.6 km/h 78 % 0.0 mm
02:20 6.7 °C 3.1 °C 1013.8 hPa NE 1.6 km/h 3.2 km/h 78 % 0.0 mm
02:30 6.9 °C 3.3 °C 1014.8 hPa Calm   3.2 km/h 78 % 0.0 mm
02:40 7.0 °C 3.2 °C 1014.8 hPa Calm   1.6 km/h 77 % 0.0 mm
03:00 7.4 °C 3.4 °C 1014.8 hPa Calm   3.2 km/h 76 % 0.0 mm
03:10 7.9 °C 3.7 °C 1014.8 hPa NE 1.6 km/h 1.6 km/h 75 % 0.0 mm
03:20 7.6 °C 3.4 °C 1014.8 hPa WSW 1.6 km/h 3.2 km/h 75 % 0.0 mm
03:30 7.7 °C 3.6 °C 1013.8 hPa SW 1.6 km/h 3.2 km/h 75 % 0.0 mm
03:40 8.4 °C 4.2 °C 1013.8 hPa SSW 1.6 km/h 4.8 km/h 75 % 0.0 mm
03:50 8.5 °C 4.1 °C 1013.8 hPa SSW 3.2 km/h 3.2 km/h 74 % 0.0 mm
04:00 9.7 °C 5.3 °C 1013.8 hPa SSW 1.6 km/h 3.2 km/h 74 % 0.0 mm
04:10 10.4 °C 5.4 °C 1013.8 hPa NE 1.6 km/h 3.2 km/h 71 % 0.0 mm
04:20 10.9 °C 5.4 °C 1013.8 hPa NE 4.8 km/h 6.4 km/h 69 % 0.0 mm
04:30 11.5 °C 5.8 °C 1013.8 hPa ENE 3.2 km/h 3.2 km/h 68 % 0.0 mm
04:40 11.9 °C 5.9 °C 1013.8 hPa ENE 3.2 km/h 6.4 km/h 67 % 0.0 mm
04:50 12.3 °C 5.9 °C 1013.8 hPa ENE 3.2 km/h 6.4 km/h 65 % 0.0 mm
05:10 12.7 °C 6.1 °C 1013.8 hPa SSW 1.6 km/h 4.8 km/h 64 % 0.0 mm
05:20 13.8 °C 6.9 °C 1014.8 hPa SSE 3.2 km/h 6.4 km/h 63 % 0.0 mm
05:30 13.9 °C 6.5 °C 1013.8 hPa ESE 1.6 km/h 6.4 km/h 61 % 0.0 mm
05:40 14.0 °C 6.3 °C 1013.8 hPa East 3.2 km/h 6.4 km/h 60 % 0.0 mm
10:43 14.3 °C 6.4 °C 1013.8 hPa East 3.7 km/h 3.7 km/h 59 % 0.0 mm
10:48 14.6 °C 6.7 °C 1013.8 hPa WNW 3.7 km/h 3.7 km/h 59 % 0.0 mm
10:53 15.1 °C 6.6 °C 1013.8 hPa SE 5.6 km/h 5.6 km/h 57 % 0.0 mm
10:58 15.3 °C 7.1 °C 1013.8 hPa SW 6.1 km/h 6.1 km/h 58 % 0.0 mm
11:03 15.2 °C 6.2 °C 1013.8 hPa ENE 5.6 km/h 5.6 km/h 55 % 0.0 mm
11:08 15.2 °C 6.2 °C 1013.8 hPa SW 7.4 km/h 7.4 km/h 55 % 0.0 mm
11:13 15.2 °C 5.7 °C 1012.8 hPa West 9.7 km/h 9.7 km/h 53 % 0.0 mm
11:18 15.1 °C 5.6 °C 1012.8 hPa SW 5.6 km/h 5.6 km/h 53 % 0.0 mm
11:23 15.7 °C 5.9 °C 1012.8 hPa East 5.6 km/h 5.6 km/h 52 % 0.0 mm
11:28 16.1 °C 6.2 °C 1012.8 hPa SSW 13.0 km/h 13.0 km/h 52 % 0.0 mm
11:33 15.9 °C 6.1 °C 1012.8 hPa East 5.6 km/h 5.6 km/h 52 % 0.0 mm
11:38 16.2 °C 6.1 °C 1012.8 hPa South 9.7 km/h 9.7 km/h 51 % 0.0 mm
11:43 16.3 °C 6.1 °C 1012.8 hPa ENE 7.4 km/h 7.4 km/h 51 % 0.0 mm
11:48 16.7 °C 6.5 °C 1012.8 hPa SSE 9.3 km/h 9.3 km/h 51 % 0.0 mm
11:53 16.5 °C 6.3 °C 1012.8 hPa ENE 9.3 km/h 9.3 km/h 51 % 0.0 mm
11:58 16.3 °C 5.8 °C 1013.8 hPa ENE 7.4 km/h 7.4 km/h 50 % 0.0 mm
12:08 16.9 °C 6.7 °C 1013.8 hPa SW 7.6 km/h 7.6 km/h 51 % 0.0 mm
12:13 16.9 °C 5.8 °C 1013.8 hPa South 6.9 km/h 6.9 km/h 48 % 0.0 mm
12:18 17.6 °C 6.4 °C 1013.8 hPa NNE 9.3 km/h 9.3 km/h 48 % 0.0 mm
12:28 18.2 °C 7.0 °C 1013.8 hPa SW 6.9 km/h 6.9 km/h 48 % 0.0 mm
12:33 18.4 °C 6.6 °C 1013.8 hPa SSE 5.6 km/h 5.6 km/h 46 % 0.0 mm
12:38 18.9 °C 6.4 °C 1013.8 hPa SW 11.1 km/h 11.1 km/h 44 % 0.0 mm
12:43 18.7 °C 6.5 °C 1012.8 hPa West 7.4 km/h 7.4 km/h 45 % 0.0 mm
12:48 19.2 °C 6.7 °C 1012.8 hPa SW 7.4 km/h 7.4 km/h 44 % 0.0 mm
12:53 19.7 °C 6.8 °C 1012.8 hPa South 5.6 km/h 5.6 km/h 43 % 0.0 mm
12:58 19.1 °C 5.9 °C 1012.8 hPa WNW 7.4 km/h 7.4 km/h 42 % 0.0 mm
13:03 19.5 °C 6.2 °C 1012.8 hPa NE 8.7 km/h 8.7 km/h 42 % 0.0 mm
13:08 19.8 °C 6.2 °C 1012.8 hPa SW 9.3 km/h 9.3 km/h 41 % 0.0 mm
13:13 20.0 °C 6.0 °C 1011.7 hPa WSW 11.1 km/h 11.1 km/h 40 % 0.0 mm
13:18 19.6 °C 5.3 °C 1011.7 hPa SW 13.0 km/h 13.0 km/h 39 % 0.0 mm
13:23 20.2 °C 6.2 °C 1011.7 hPa SSW 3.9 km/h 3.9 km/h 40 % 0.0 mm
13:28 20.5 °C 6.1 °C 1011.7 hPa South 3.7 km/h 3.9 km/h 39 % 0.0 mm
13:33 20.8 °C 6.7 °C 1011.7 hPa SSW 5.6 km/h 5.6 km/h 40 % 0.0 mm
13:38 20.5 °C 5.7 °C 1011.7 hPa SSW 5.6 km/h 5.6 km/h 38 % 0.0 mm
13:43 20.8 °C 5.9 °C 1011.7 hPa WNW 9.5 km/h 9.5 km/h 38 % 0.0 mm
13:48 20.4 °C 5.2 °C 1011.7 hPa NE 5.6 km/h 5.6 km/h 37 % 0.0 mm
13:53 20.7 °C 5.5 °C 1011.7 hPa WSW 13.0 km/h 13.0 km/h 37 % 0.0 mm
13:58 21.0 °C 5.7 °C 1011.7 hPa SW 7.4 km/h 7.4 km/h 37 % 0.0 mm
14:03 21.0 °C 5.7 °C 1011.7 hPa East 7.9 km/h 7.9 km/h 37 % 0.0 mm
14:08 21.3 °C 5.6 °C 1011.7 hPa WSW 9.3 km/h 9.3 km/h 36 % 0.0 mm
14:13 20.9 °C 5.3 °C 1011.7 hPa WSW 3.7 km/h 3.7 km/h 36 % 0.0 mm
14:18 21.0 °C 5.7 °C 1011.7 hPa SSE 9.3 km/h 9.3 km/h 37 % 0.0 mm
14:23 21.0 °C 6.5 °C 1011.7 hPa South 9.3 km/h 9.3 km/h 39 % 0.0 mm
14:28 20.5 °C 6.4 °C 1011.7 hPa ESE 9.3 km/h 9.3 km/h 40 % 0.0 mm
14:38 20.1 °C 6.4 °C 1011.7 hPa ESE 18.5 km/h 18.5 km/h 41 % 0.0 mm
14:43 19.9 °C 6.6 °C 1011.7 hPa ESE 10.3 km/h 10.3 km/h 42 % 0.0 mm
14:48 19.4 °C 6.2 °C 1011.7 hPa ESE 15.8 km/h 15.8 km/h 42 % 0.0 mm
14:53 19.7 °C 6.4 °C 1011.7 hPa ENE 14.8 km/h 14.8 km/h 42 % 0.0 mm
14:58 19.7 °C 6.4 °C 1011.7 hPa ESE 18.5 km/h 18.5 km/h 42 % 0.0 mm
15:03 19.6 °C 6.3 °C 1011.7 hPa ESE 9.3 km/h 9.3 km/h 42 % 0.0 mm
15:08 19.9 °C 6.9 °C 1011.7 hPa ESE 21.7 km/h 21.7 km/h 43 % 0.0 mm
15:13 19.4 °C 6.2 °C 1011.7 hPa East 11.1 km/h 11.1 km/h 42 % 0.0 mm
15:18 19.5 °C 6.6 °C 1011.7 hPa East 16.7 km/h 16.7 km/h 43 % 0.0 mm
15:23 19.5 °C 6.6 °C 1011.7 hPa ESE 18.5 km/h 18.5 km/h 43 % 0.0 mm
15:28 19.3 °C 6.4 °C 1012.8 hPa East 16.4 km/h 16.4 km/h 43 % 0.0 mm
15:38 19.4 °C 6.5 °C 1012.8 hPa NNE 18.5 km/h 18.5 km/h 43 % 0.0 mm
15:43 19.1 °C 5.9 °C 1011.7 hPa ENE 18.5 km/h 18.5 km/h 42 % 0.0 mm
15:48 19.3 °C 6.1 °C 1011.7 hPa ENE 13.0 km/h 13.0 km/h 42 % 0.0 mm
15:53 20.0 °C 6.7 °C 1011.7 hPa ENE 6.4 km/h 6.4 km/h 42 % 0.0 mm
15:58 20.2 °C 6.9 °C 1011.7 hPa ESE 9.7 km/h 9.7 km/h 42 % 0.0 mm
16:03 20.1 °C 6.4 °C 1011.7 hPa NE 5.0 km/h 5.0 km/h 41 % 0.0 mm
16:08 20.3 °C 6.9 °C 1011.7 hPa SW 7.4 km/h 7.4 km/h 42 % 0.0 mm
16:13 21.2 °C 7.1 °C 1011.7 hPa ESE 10.3 km/h 10.3 km/h 40 % 0.0 mm
16:18 21.1 °C 6.9 °C 1011.7 hPa SE 10.3 km/h 10.3 km/h 40 % 0.0 mm
16:23 21.3 °C 6.8 °C 1011.7 hPa SSE 13.0 km/h 13.0 km/h 39 % 0.0 mm
16:28 21.2 °C 6.7 °C 1010.7 hPa SSW 9.3 km/h 9.3 km/h 39 % 0.0 mm
16:33 21.2 °C 6.7 °C 1010.7 hPa South 9.3 km/h 9.3 km/h 39 % 0.0 mm
16:38 21.8 °C 7.6 °C 1010.7 hPa South 5.6 km/h 5.6 km/h 40 % 0.0 mm
16:43 21.5 °C 7.3 °C 1011.7 hPa SW 11.1 km/h 11.1 km/h 40 % 0.0 mm
16:48 21.6 °C 7.8 °C 1011.7 hPa WSW 14.0 km/h 14.0 km/h 41 % 0.0 mm
16:53 21.3 °C 7.5 °C 1011.7 hPa SSW 14.8 km/h 14.8 km/h 41 % 0.0 mm
16:58 20.9 °C 7.5 °C 1010.7 hPa SW 16.7 km/h 16.7 km/h 42 % 0.0 mm
17:03 20.7 °C 7.7 °C 1010.7 hPa SW 9.3 km/h 9.3 km/h 43 % 0.0 mm
17:08 20.8 °C 7.8 °C 1010.7 hPa SW 18.5 km/h 18.5 km/h 43 % 0.0 mm
17:13 20.7 °C 7.7 °C 1011.7 hPa SW 9.3 km/h 9.3 km/h 43 % 0.0 mm
17:18 21.2 °C 7.8 °C 1011.7 hPa SW 13.0 km/h 13.0 km/h 42 % 0.0 mm
17:23 20.9 °C 7.8 °C 1011.7 hPa SSW 14.8 km/h 14.8 km/h 43 % 0.0 mm
17:28 20.9 °C 7.8 °C 1010.7 hPa SSW 13.0 km/h 13.0 km/h 43 % 0.0 mm
17:33 21.0 °C 7.6 °C 1010.7 hPa SW 13.0 km/h 13.0 km/h 42 % 0.0 mm
17:38 20.6 °C 7.6 °C 1010.7 hPa SW 17.2 km/h 17.2 km/h 43 % 0.0 mm
17:43 20.6 °C 7.9 °C 1010.7 hPa SSW 13.0 km/h 13.0 km/h 44 % 0.0 mm
17:48 20.4 °C 7.7 °C 1010.7 hPa WSW 7.9 km/h 7.9 km/h 44 % 0.0 mm
17:53 20.3 °C 7.9 °C 1010.7 hPa SW 14.8 km/h 14.8 km/h 45 % 0.0 mm
17:58 20.4 °C 8.1 °C 1010.7 hPa SSW 14.8 km/h 14.8 km/h 45 % 0.0 mm
18:03 20.3 °C 8.3 °C 1010.7 hPa SSW 11.1 km/h 11.1 km/h 46 % 0.0 mm
18:08 20.0 °C 8.0 °C 1010.7 hPa SW 13.0 km/h 13.0 km/h 46 % 0.0 mm
18:13 20.1 °C 8.1 °C 1010.7 hPa West 11.1 km/h 11.1 km/h 46 % 0.0 mm
18:18 20.6 °C 8.6 °C 1010.7 hPa WSW 10.3 km/h 10.3 km/h 46 % 0.0 mm
18:23 20.0 °C 8.0 °C 1010.7 hPa SSW 9.3 km/h 9.3 km/h 46 % 0.0 mm
18:28 20.0 °C 7.7 °C 1010.7 hPa SSW 16.7 km/h 16.7 km/h 45 % 0.0 mm
18:33 19.9 °C 7.6 °C 1010.7 hPa SSW 14.8 km/h 14.8 km/h 45 % 0.0 mm
18:38 19.7 °C 7.4 °C 1010.7 hPa SW 12.6 km/h 12.6 km/h 45 % 0.0 mm
18:43 19.7 °C 7.4 °C 1011.7 hPa WSW 13.0 km/h 13.0 km/h 45 % 0.0 mm
18:48 19.7 °C 7.4 °C 1011.7 hPa SSE 7.4 km/h 7.4 km/h 45 % 0.0 mm
18:53 20.0 °C 7.7 °C 1011.7 hPa SSW 6.9 km/h 6.9 km/h 45 % 0.0 mm
18:58 19.9 °C 7.3 °C 1011.7 hPa SW 9.3 km/h 9.3 km/h 44 % 0.0 mm
19:03 19.9 °C 7.3 °C 1011.7 hPa SW 11.9 km/h 11.9 km/h 44 % 0.0 mm
19:08 19.3 °C 6.7 °C 1011.7 hPa WSW 7.4 km/h 7.4 km/h 44 % 0.0 mm
19:13 19.0 °C 6.4 °C 1010.7 hPa WSW 9.5 km/h 9.5 km/h 44 % 0.0 mm
19:18 18.8 °C 6.6 °C 1010.7 hPa SW 13.0 km/h 13.0 km/h 45 % 0.0 mm
19:20 12.6 °C 7.3 °C 1013.8 hPa ENE 4.8 km/h 6.4 km/h 70 % 0.0 mm
19:24 18.6 °C 6.4 °C 1010.7 hPa WSW 13.0 km/h 13.0 km/h 45 % 0.0 mm
19:29 18.3 °C 6.2 °C 1010.7 hPa WSW 12.2 km/h 12.2 km/h 45 % 0.0 mm
19:30 12.6 °C 7.3 °C 1013.8 hPa ENE 4.8 km/h 8.0 km/h 70 % 0.0 mm
19:34 18.1 °C 5.9 °C 1010.7 hPa SW 13.0 km/h 13.0 km/h 45 % 0.0 mm
19:39 18.0 °C 6.2 °C 1010.7 hPa SSE 11.1 km/h 11.1 km/h 46 % 0.0 mm
19:44 18.0 °C 6.2 °C 1010.7 hPa WSW 7.4 km/h 7.4 km/h 46 % 0.0 mm
19:45 12.5 °C 7.4 °C 1013.8 hPa ENE 8.0 km/h 9.7 km/h 71 % 0.0 mm
19:49 17.9 °C 6.1 °C 1010.7 hPa South 3.7 km/h 3.7 km/h 46 % 0.0 mm
19:54 17.7 °C 5.9 °C 1010.7 hPa SW 5.6 km/h 5.6 km/h 46 % 0.0 mm
19:55 12.5 °C 7.4 °C 1013.8 hPa East 3.2 km/h 9.7 km/h 71 % 0.0 mm
19:59 17.6 °C 6.2 °C 1010.7 hPa SW 7.4 km/h 7.4 km/h 47 % 0.0 mm
20:04 17.4 °C 5.9 °C 1010.7 hPa SW 5.6 km/h 5.6 km/h 47 % 0.0 mm
20:05 12.5 °C 7.6 °C 1013.8 hPa ENE 4.8 km/h 8.0 km/h 72 % 0.0 mm
20:09 17.3 °C 5.9 °C 1010.7 hPa SW 5.6 km/h 5.6 km/h 47 % 0.0 mm
20:14 17.3 °C 5.9 °C 1011.7 hPa SW 3.5 km/h 3.5 km/h 47 % 0.0 mm
20:15 12.6 °C 7.5 °C 1013.8 hPa ENE 4.8 km/h 6.4 km/h 71 % 0.0 mm
20:19 17.1 °C 5.7 °C 1011.7 hPa South 3.7 km/h 3.7 km/h 47 % 0.0 mm
20:24 16.9 °C 5.8 °C 1011.7 hPa SW 3.7 km/h 4.7 km/h 48 % 0.0 mm
20:25 12.6 °C 7.7 °C 1013.8 hPa ENE 8.0 km/h 9.7 km/h 72 % 0.0 mm
20:29 16.7 °C 5.9 °C 1011.7 hPa SSE 14.8 km/h 14.8 km/h 49 % 0.0 mm
20:34 16.5 °C 5.7 °C 1011.7 hPa SSW 7.4 km/h 7.4 km/h 49 % 0.0 mm
20:35 12.5 °C 7.6 °C 1013.8 hPa East 9.7 km/h 9.7 km/h 72 % 0.0 mm
20:39 16.3 °C 5.8 °C 1011.7 hPa ESE 7.4 km/h 7.4 km/h 50 % 0.0 mm
20:44 16.1 °C 5.9 °C 1011.7 hPa SSE 3.7 km/h 3.7 km/h 51 % 0.0 mm
20:45 12.6 °C 7.9 °C 1013.8 hPa ENE 4.8 km/h 8.0 km/h 73 % 0.0 mm
20:49 16.0 °C 5.8 °C 1011.7 hPa ENE 13.0 km/h 13.0 km/h 51 % 0.0 mm
20:54 15.7 °C 5.9 °C 1011.7 hPa ESE 7.9 km/h 7.9 km/h 52 % 0.0 mm
20:55 12.6 °C 7.9 °C 1013.8 hPa ENE 4.8 km/h 9.7 km/h 73 % 0.0 mm
20:59 15.5 °C 6.2 °C 1011.7 hPa ESE 11.1 km/h 11.1 km/h 54 % 0.0 mm
21:04 15.3 °C 6.8 °C 1011.7 hPa ESE 9.3 km/h 9.3 km/h 57 % 0.0 mm
21:09 15.1 °C 7.4 °C 1011.7 hPa ENE 11.1 km/h 11.1 km/h 60 % 0.0 mm
21:14 14.9 °C 7.4 °C 1011.7 hPa ESE 14.8 km/h 14.8 km/h 61 % 0.0 mm
21:15 12.6 °C 7.9 °C 1013.8 hPa ENE 1.6 km/h 9.7 km/h 73 % 0.0 mm
21:19 14.8 °C 7.8 °C 1011.7 hPa ESE 11.1 km/h 11.1 km/h 63 % 0.0 mm
21:24 14.7 °C 7.9 °C 1011.7 hPa ESE 9.5 km/h 9.5 km/h 64 % 0.0 mm
21:25 12.5 °C 7.8 °C 1013.8 hPa ENE 4.8 km/h 8.0 km/h 73 % 0.0 mm
21:34 14.6 °C 8.1 °C 1011.7 hPa ESE 9.3 km/h 9.3 km/h 65 % 0.0 mm
21:35 12.5 °C 8.0 °C 1012.8 hPa ENE 4.8 km/h 6.4 km/h 74 % 0.0 mm
21:39 14.5 °C 8.0 °C 1011.7 hPa East 6.4 km/h 6.4 km/h 65 % 0.0 mm
21:45 12.5 °C 8.0 °C 1012.8 hPa ENE 3.2 km/h 9.7 km/h 74 % 0.0 mm
21:49 14.2 °C 8.2 °C 1012.8 hPa East 7.9 km/h 7.9 km/h 67 % 0.0 mm
21:54 14.0 °C 7.7 °C 1012.8 hPa ENE 11.1 km/h 11.1 km/h 66 % 0.0 mm
21:55 12.5 °C 8.0 °C 1013.8 hPa ENE 3.2 km/h 9.7 km/h 74 % 0.0 mm
21:59 13.9 °C 7.4 °C 1012.8 hPa East 6.4 km/h 6.4 km/h 65 % 0.0 mm
22:04 13.7 °C 7.0 °C 1012.8 hPa ESE 10.8 km/h 10.8 km/h 64 % 0.0 mm
22:05 12.5 °C 8.0 °C 1013.8 hPa NE 4.8 km/h 6.4 km/h 74 % 0.0 mm
22:09 13.6 °C 6.9 °C 1012.8 hPa East 9.7 km/h 9.7 km/h 64 % 0.0 mm
22:14 13.5 °C 6.8 °C 1011.7 hPa East 13.0 km/h 13.0 km/h 64 % 0.0 mm
22:15 12.5 °C 8.0 °C 1013.8 hPa ENE 4.8 km/h 8.0 km/h 74 % 0.0 mm
22:19 13.4 °C 6.7 °C 1011.7 hPa NNW 11.1 km/h 11.1 km/h 64 % 0.0 mm
22:24 13.4 °C 6.7 °C 1011.7 hPa NE 11.1 km/h 11.1 km/h 64 % 0.0 mm
22:25 12.5 °C 8.0 °C 1013.8 hPa East 4.8 km/h 9.7 km/h 74 % 0.0 mm
22:29 13.3 °C 6.6 °C 1012.8 hPa East 5.8 km/h 5.8 km/h 64 % 0.0 mm
22:34 13.3 °C 6.6 °C 1012.8 hPa East 7.4 km/h 7.4 km/h 64 % 0.0 mm
22:35 12.4 °C 7.9 °C 1013.8 hPa ENE 4.8 km/h 6.4 km/h 74 % 0.0 mm
22:39 13.2 °C 6.6 °C 1012.8 hPa ENE 8.7 km/h 8.7 km/h 64 % 0.0 mm
22:44 13.2 °C 6.8 °C 1012.8 hPa ENE 13.0 km/h 13.0 km/h 65 % 0.0 mm
22:45 12.4 °C 7.9 °C 1013.8 hPa NE 3.2 km/h 6.4 km/h 74 % 0.0 mm
22:49 13.1 °C 6.7 °C 1012.8 hPa East 9.3 km/h 9.3 km/h 65 % 0.0 mm
22:54 13.1 °C 6.7 °C 1012.8 hPa ENE 9.5 km/h 9.5 km/h 65 % 0.0 mm
22:55 12.4 °C 7.9 °C 1012.8 hPa NE 4.8 km/h 4.8 km/h 74 % 0.0 mm
22:59 13.1 °C 6.9 °C 1013.8 hPa SE 7.4 km/h 7.4 km/h 66 % 0.0 mm
23:04 13.1 °C 6.9 °C 1013.8 hPa SE 7.4 km/h 7.4 km/h 66 % 0.0 mm
23:05 12.4 °C 7.9 °C 1013.8 hPa ENE 3.2 km/h 6.4 km/h 74 % 0.0 mm
23:14 13.0 °C 7.0 °C 1012.8 hPa NNE 9.3 km/h 9.3 km/h 67 % 0.0 mm
23:15 12.4 °C 7.9 °C 1013.8 hPa NE 4.8 km/h 8.0 km/h 74 % 0.0 mm
23:19 13.0 °C 7.0 °C 1012.8 hPa ENE 14.8 km/h 14.8 km/h 67 % 0.0 mm
23:24 13.0 °C 7.0 °C 1012.8 hPa NNE 3.9 km/h 5.3 km/h 67 % 0.0 mm
23:25 12.4 °C 7.9 °C 1012.8 hPa NE 4.8 km/h 6.4 km/h 74 % 0.0 mm
23:29 13.0 °C 7.2 °C 1013.8 hPa NE 9.3 km/h 9.3 km/h 68 % 0.0 mm
23:34 12.9 °C 7.1 °C 1013.8 hPa East 13.0 km/h 13.0 km/h 68 % 0.0 mm
23:35 12.3 °C 7.8 °C 1012.8 hPa ENE 3.2 km/h 4.8 km/h 74 % 0.0 mm
23:39 12.8 °C 7.1 °C 1013.8 hPa ENE 9.5 km/h 9.5 km/h 68 % 0.0 mm
23:44 12.7 °C 7.2 °C 1013.8 hPa NE 4.2 km/h 4.7 km/h 69 % 0.0 mm
23:45 12.3 °C 7.8 °C 1012.8 hPa ENE 4.8 km/h 6.4 km/h 74 % 0.0 mm
23:49 12.7 °C 7.2 °C 1013.8 hPa ENE 7.9 km/h 7.9 km/h 69 % 0.0 mm
23:54 12.7 °C 7.2 °C 1013.8 hPa East 7.4 km/h 7.4 km/h 69 % 0.0 mm
23:55 12.2 °C 7.7 °C 1013.8 hPa NE 3.2 km/h 6.4 km/h 74 % 0.0 mm
23:59 12.7 °C 7.2 °C 1013.8 hPa East 9.3 km/h 9.3 km/h 69 % 0.0 mm
Meteo Sesrovires
Elogis d' Weather Underground - 3.75 mb

Guio original per  Jim McMurry - jmcmurry@mwt.net Adaptat per a la plantilla per  Wim van der Kuil - Leuven-Template.eu

Trobareu la nostra informacio del temps tambe a:

Weather Underground

AWEKAS